sensor_id;sensor_type;location;lat;lon;timestamp;temperature;humidity
66568;DHT22;53422;49.296;6.900;2022-07-04T00:00:30;22.20;49.50
66568;DHT22;53422;49.296;6.900;2022-07-04T00:02:59;22.10;49.40
66568;DHT22;53422;49.296;6.900;2022-07-04T00:05:36;22.10;50.50
66568;DHT22;53422;49.296;6.900;2022-07-04T00:08:04;22.10;49.50
66568;DHT22;53422;49.296;6.900;2022-07-04T00:10:30;22.10;49.60
66568;DHT22;53422;49.296;6.900;2022-07-04T00:12:56;22.00;49.50
66568;DHT22;53422;49.296;6.900;2022-07-04T00:15:22;22.00;49.60
66568;DHT22;53422;49.296;6.900;2022-07-04T00:17:48;22.00;49.70
66568;DHT22;53422;49.296;6.900;2022-07-04T00:20:14;22.00;49.80
66568;DHT22;53422;49.296;6.900;2022-07-04T00:22:39;22.00;49.80
66568;DHT22;53422;49.296;6.900;2022-07-04T00:25:06;21.90;50.00
66568;DHT22;53422;49.296;6.900;2022-07-04T00:27:32;21.90;50.00
66568;DHT22;53422;49.296;6.900;2022-07-04T00:29:57;21.90;50.20
66568;DHT22;53422;49.296;6.900;2022-07-04T00:32:23;21.90;50.20
66568;DHT22;53422;49.296;6.900;2022-07-04T00:34:49;21.80;50.10
66568;DHT22;53422;49.296;6.900;2022-07-04T00:37:14;21.80;50.20
66568;DHT22;53422;49.296;6.900;2022-07-04T00:39:40;21.80;50.50
66568;DHT22;53422;49.296;6.900;2022-07-04T00:42:07;21.70;50.40
66568;DHT22;53422;49.296;6.900;2022-07-04T00:44:33;21.70;50.50
66568;DHT22;53422;49.296;6.900;2022-07-04T00:47:02;21.70;51.40
66568;DHT22;53422;49.296;6.900;2022-07-04T00:49:28;21.70;50.40
66568;DHT22;53422;49.296;6.900;2022-07-04T00:51:54;21.70;50.50
66568;DHT22;53422;49.296;6.900;2022-07-04T00:54:20;21.70;50.70
66568;DHT22;53422;49.296;6.900;2022-07-04T00:56:50;21.60;50.70
66568;DHT22;53422;49.296;6.900;2022-07-04T00:59:15;21.60;50.80
66568;DHT22;53422;49.296;6.900;2022-07-04T01:01:41;21.60;50.60
66568;DHT22;53422;49.296;6.900;2022-07-04T01:04:07;21.60;50.80
66568;DHT22;53422;49.296;6.900;2022-07-04T01:06:33;21.50;50.70
66568;DHT22;53422;49.296;6.900;2022-07-04T01:09:00;21.50;50.80
66568;DHT22;53422;49.296;6.900;2022-07-04T01:11:26;21.50;50.90
66568;DHT22;53422;49.296;6.900;2022-07-04T01:13:55;21.50;52.00
66568;DHT22;53422;49.296;6.900;2022-07-04T01:16:20;21.50;51.10
66568;DHT22;53422;49.296;6.900;2022-07-04T01:18:46;21.40;51.10
66568;DHT22;53422;49.296;6.900;2022-07-04T01:21:13;21.40;51.00
66568;DHT22;53422;49.296;6.900;2022-07-04T01:23:39;21.40;51.00
66568;DHT22;53422;49.296;6.900;2022-07-04T01:26:06;21.40;51.10
66568;DHT22;53422;49.296;6.900;2022-07-04T01:28:31;21.40;51.30
66568;DHT22;53422;49.296;6.900;2022-07-04T01:31:00;21.30;51.10
66568;DHT22;53422;49.296;6.900;2022-07-04T01:33:26;21.30;51.10
66568;DHT22;53422;49.296;6.900;2022-07-04T01:35:52;21.30;51.20
66568;DHT22;53422;49.296;6.900;2022-07-04T01:38:18;21.30;51.30
66568;DHT22;53422;49.296;6.900;2022-07-04T01:40:44;21.30;51.30
66568;DHT22;53422;49.296;6.900;2022-07-04T01:43:10;21.20;51.20
66568;DHT22;53422;49.296;6.900;2022-07-04T01:45:35;21.20;51.50
66568;DHT22;53422;49.296;6.900;2022-07-04T01:48:06;21.20;51.60
66568;DHT22;53422;49.296;6.900;2022-07-04T01:50:33;21.20;51.70
66568;DHT22;53422;49.296;6.900;2022-07-04T01:52:59;21.20;51.70
66568;DHT22;53422;49.296;6.900;2022-07-04T01:55:25;21.10;51.80
66568;DHT22;53422;49.296;6.900;2022-07-04T01:57:51;21.10;51.80
66568;DHT22;53422;49.296;6.900;2022-07-04T02:00:17;21.10;51.80
66568;DHT22;53422;49.296;6.900;2022-07-04T02:03:01;21.10;51.80
66568;DHT22;53422;49.296;6.900;2022-07-04T02:05:27;21.00;52.00
66568;DHT22;53422;49.296;6.900;2022-07-04T02:07:52;21.00;52.00
66568;DHT22;53422;49.296;6.900;2022-07-04T02:10:18;21.00;52.20
66568;DHT22;53422;49.296;6.900;2022-07-04T02:12:44;20.90;52.10
66568;DHT22;53422;49.296;6.900;2022-07-04T02:15:38;20.90;52.10
66568;DHT22;53422;49.296;6.900;2022-07-04T02:18:06;20.90;52.10
66568;DHT22;53422;49.296;6.900;2022-07-04T02:20:33;20.90;52.20
66568;DHT22;53422;49.296;6.900;2022-07-04T02:22:59;20.90;52.20
66568;DHT22;53422;49.296;6.900;2022-07-04T02:25:25;20.80;52.20
66568;DHT22;53422;49.296;6.900;2022-07-04T02:27:50;20.80;52.10
66568;DHT22;53422;49.296;6.900;2022-07-04T02:30:16;20.80;52.30
66568;DHT22;53422;49.296;6.900;2022-07-04T02:32:42;20.80;52.20
66568;DHT22;53422;49.296;6.900;2022-07-04T02:35:08;20.80;52.40
66568;DHT22;53422;49.296;6.900;2022-07-04T02:37:35;20.70;52.40
66568;DHT22;53422;49.296;6.900;2022-07-04T02:40:01;20.70;52.50
66568;DHT22;53422;49.296;6.900;2022-07-04T02:42:31;20.70;52.80
66568;DHT22;53422;49.296;6.900;2022-07-04T02:44:57;20.70;52.60
66568;DHT22;53422;49.296;6.900;2022-07-04T02:47:23;20.70;52.60
66568;DHT22;53422;49.296;6.900;2022-07-04T02:49:49;20.60;53.70
66568;DHT22;53422;49.296;6.900;2022-07-04T02:52:14;20.60;52.60
66568;DHT22;53422;49.296;6.900;2022-07-04T02:54:41;20.60;52.60
66568;DHT22;53422;49.296;6.900;2022-07-04T02:57:07;20.60;52.70
66568;DHT22;53422;49.296;6.900;2022-07-04T02:59:36;20.60;52.90
66568;DHT22;53422;49.296;6.900;2022-07-04T03:02:02;20.50;52.90
66568;DHT22;53422;49.296;6.900;2022-07-04T03:04:28;20.50;52.80
66568;DHT22;53422;49.296;6.900;2022-07-04T03:06:53;20.50;53.00
66568;DHT22;53422;49.296;6.900;2022-07-04T03:09:19;20.50;53.10
66568;DHT22;53422;49.296;6.900;2022-07-04T03:11:45;20.40;53.10
66568;DHT22;53422;49.296;6.900;2022-07-04T03:14:11;20.40;53.10
66568;DHT22;53422;49.296;6.900;2022-07-04T03:16:37;20.40;53.10
66568;DHT22;53422;49.296;6.900;2022-07-04T03:19:02;20.40;53.10
66568;DHT22;53422;49.296;6.900;2022-07-04T03:21:28;20.30;53.20
66568;DHT22;53422;49.296;6.900;2022-07-04T03:23:54;20.30;53.30
66568;DHT22;53422;49.296;6.900;2022-07-04T03:26:27;20.30;53.40
66568;DHT22;53422;49.296;6.900;2022-07-04T03:28:55;20.30;53.30
66568;DHT22;53422;49.296;6.900;2022-07-04T03:31:21;20.30;53.30
66568;DHT22;53422;49.296;6.900;2022-07-04T03:33:47;20.30;53.40
66568;DHT22;53422;49.296;6.900;2022-07-04T03:36:13;20.30;53.30
66568;DHT22;53422;49.296;6.900;2022-07-04T03:38:38;20.20;53.30
66568;DHT22;53422;49.296;6.900;2022-07-04T03:41:04;20.20;54.30
66568;DHT22;53422;49.296;6.900;2022-07-04T03:43:30;20.20;53.30
66568;DHT22;53422;49.296;6.900;2022-07-04T03:45:56;20.20;53.30
66568;DHT22;53422;49.296;6.900;2022-07-04T03:48:24;20.10;53.30
66568;DHT22;53422;49.296;6.900;2022-07-04T03:50:50;20.10;54.40
66568;DHT22;53422;49.296;6.900;2022-07-04T03:53:16;20.10;53.60
66568;DHT22;53422;49.296;6.900;2022-07-04T03:55:42;20.10;53.70
66568;DHT22;53422;49.296;6.900;2022-07-04T03:58:08;20.10;53.70
66568;DHT22;53422;49.296;6.900;2022-07-04T04:00:34;20.00;53.70
66568;DHT22;53422;49.296;6.900;2022-07-04T04:03:00;20.00;53.80
66568;DHT22;53422;49.296;6.900;2022-07-04T04:05:26;20.00;53.80
66568;DHT22;53422;49.296;6.900;2022-07-04T04:08:00;20.00;54.00
66568;DHT22;53422;49.296;6.900;2022-07-04T04:10:30;20.00;54.00
66568;DHT22;53422;49.296;6.900;2022-07-04T04:12:57;20.00;54.00
66568;DHT22;53422;49.296;6.900;2022-07-04T04:15:23;20.00;54.10
66568;DHT22;53422;49.296;6.900;2022-07-04T04:17:52;20.00;54.10
66568;DHT22;53422;49.296;6.900;2022-07-04T04:20:17;20.00;54.10
66568;DHT22;53422;49.296;6.900;2022-07-04T04:22:43;20.10;54.20
66568;DHT22;53422;49.296;6.900;2022-07-04T04:25:09;20.10;54.20
66568;DHT22;53422;49.296;6.900;2022-07-04T04:27:35;20.10;54.20
66568;DHT22;53422;49.296;6.900;2022-07-04T04:30:01;20.10;54.30
66568;DHT22;53422;49.296;6.900;2022-07-04T04:32:27;20.10;54.40
66568;DHT22;53422;49.296;6.900;2022-07-04T04:34:52;20.10;54.40
66568;DHT22;53422;49.296;6.900;2022-07-04T04:37:18;20.20;54.50
66568;DHT22;53422;49.296;6.900;2022-07-04T04:39:44;20.20;54.70
66568;DHT22;53422;49.296;6.900;2022-07-04T04:42:10;20.20;54.70
66568;DHT22;53422;49.296;6.900;2022-07-04T04:44:35;20.30;54.80
66568;DHT22;53422;49.296;6.900;2022-07-04T04:47:01;20.30;55.00
66568;DHT22;53422;49.296;6.900;2022-07-04T04:49:27;20.30;55.00
66568;DHT22;53422;49.296;6.900;2022-07-04T04:51:53;20.40;55.10
66568;DHT22;53422;49.296;6.900;2022-07-04T04:54:18;20.40;55.40
66568;DHT22;53422;49.296;6.900;2022-07-04T04:56:44;20.40;55.40
66568;DHT22;53422;49.296;6.900;2022-07-04T04:59:10;20.50;55.60
66568;DHT22;53422;49.296;6.900;2022-07-04T05:01:36;20.50;55.80
66568;DHT22;53422;49.296;6.900;2022-07-04T05:04:01;20.60;55.90
66568;DHT22;53422;49.296;6.900;2022-07-04T05:06:27;20.60;55.90
66568;DHT22;53422;49.296;6.900;2022-07-04T05:08:53;20.60;55.80
66568;DHT22;53422;49.296;6.900;2022-07-04T05:11:20;20.70;55.90
66568;DHT22;53422;49.296;6.900;2022-07-04T05:13:46;20.80;56.00
66568;DHT22;53422;49.296;6.900;2022-07-04T05:16:11;20.90;55.90
66568;DHT22;53422;49.296;6.900;2022-07-04T05:18:37;21.00;56.10
66568;DHT22;53422;49.296;6.900;2022-07-04T05:21:03;21.00;55.70
66568;DHT22;53422;49.296;6.900;2022-07-04T05:23:28;21.10;56.20
66568;DHT22;53422;49.296;6.900;2022-07-04T05:25:54;21.20;55.60
66568;DHT22;53422;49.296;6.900;2022-07-04T05:28:20;21.30;55.70
66568;DHT22;53422;49.296;6.900;2022-07-04T05:30:46;21.40;55.40
66568;DHT22;53422;49.296;6.900;2022-07-04T05:33:11;21.40;55.40
66568;DHT22;53422;49.296;6.900;2022-07-04T05:35:37;21.50;55.70
66568;DHT22;53422;49.296;6.900;2022-07-04T05:38:03;21.60;55.40
66568;DHT22;53422;49.296;6.900;2022-07-04T05:40:29;21.70;54.70
66568;DHT22;53422;49.296;6.900;2022-07-04T05:42:55;21.70;54.80
66568;DHT22;53422;49.296;6.900;2022-07-04T05:45:21;21.70;54.80
66568;DHT22;53422;49.296;6.900;2022-07-04T05:47:47;21.80;54.90
66568;DHT22;53422;49.296;6.900;2022-07-04T05:50:16;21.80;54.90
66568;DHT22;53422;49.296;6.900;2022-07-04T05:52:42;21.80;54.50
66568;DHT22;53422;49.296;6.900;2022-07-04T05:55:08;21.80;54.60
66568;DHT22;53422;49.296;6.900;2022-07-04T05:57:34;21.90;54.70
66568;DHT22;53422;49.296;6.900;2022-07-04T06:00:00;22.00;54.30
66568;DHT22;53422;49.296;6.900;2022-07-04T06:02:26;21.90;54.20
66568;DHT22;53422;49.296;6.900;2022-07-04T06:04:52;22.00;54.30
66568;DHT22;53422;49.296;6.900;2022-07-04T06:07:17;22.10;54.40
66568;DHT22;53422;49.296;6.900;2022-07-04T06:09:43;22.20;53.60
66568;DHT22;53422;49.296;6.900;2022-07-04T06:12:09;22.20;53.00
66568;DHT22;53422;49.296;6.900;2022-07-04T06:14:35;22.20;53.10
66568;DHT22;53422;49.296;6.900;2022-07-04T06:17:01;22.20;52.90
66568;DHT22;53422;49.296;6.900;2022-07-04T06:19:27;22.30;53.60
66568;DHT22;53422;49.296;6.900;2022-07-04T06:21:53;22.30;52.80
66568;DHT22;53422;49.296;6.900;2022-07-04T06:24:18;22.40;53.00
66568;DHT22;53422;49.296;6.900;2022-07-04T06:26:44;22.50;53.10
66568;DHT22;53422;49.296;6.900;2022-07-04T06:29:10;22.50;52.30
66568;DHT22;53422;49.296;6.900;2022-07-04T06:31:35;22.50;52.90
66568;DHT22;53422;49.296;6.900;2022-07-04T06:34:01;22.60;52.00
66568;DHT22;53422;49.296;6.900;2022-07-04T06:36:45;22.60;52.00
66568;DHT22;53422;49.296;6.900;2022-07-04T06:39:11;22.70;51.60
66568;DHT22;53422;49.296;6.900;2022-07-04T06:41:37;22.70;51.70
66568;DHT22;53422;49.296;6.900;2022-07-04T06:44:05;22.70;51.40
66568;DHT22;53422;49.296;6.900;2022-07-04T06:46:31;22.80;51.30
66568;DHT22;53422;49.296;6.900;2022-07-04T06:49:00;22.80;51.40
66568;DHT22;53422;49.296;6.900;2022-07-04T06:51:25;22.90;51.30
66568;DHT22;53422;49.296;6.900;2022-07-04T06:53:51;22.90;50.90
66568;DHT22;53422;49.296;6.900;2022-07-04T06:56:18;22.90;50.80
66568;DHT22;53422;49.296;6.900;2022-07-04T06:58:43;23.00;50.50
66568;DHT22;53422;49.296;6.900;2022-07-04T07:01:09;23.10;50.30
66568;DHT22;53422;49.296;6.900;2022-07-04T07:03:35;23.10;50.30
66568;DHT22;53422;49.296;6.900;2022-07-04T07:06:01;23.10;50.00
66568;DHT22;53422;49.296;6.900;2022-07-04T07:08:29;23.10;50.30
66568;DHT22;53422;49.296;6.900;2022-07-04T07:10:59;23.30;49.50
66568;DHT22;53422;49.296;6.900;2022-07-04T07:13:49;23.20;49.40
66568;DHT22;53422;49.296;6.900;2022-07-04T07:16:16;23.30;49.60
66568;DHT22;53422;49.296;6.900;2022-07-04T07:18:43;23.40;49.50
66568;DHT22;53422;49.296;6.900;2022-07-04T07:21:09;23.60;49.50
66568;DHT22;53422;49.296;6.900;2022-07-04T07:23:38;23.70;49.00
66568;DHT22;53422;49.296;6.900;2022-07-04T07:26:04;23.70;49.10
66568;DHT22;53422;49.296;6.900;2022-07-04T07:28:30;23.70;48.90
66568;DHT22;53422;49.296;6.900;2022-07-04T07:30:56;23.90;48.40
66568;DHT22;53422;49.296;6.900;2022-07-04T07:33:21;23.90;48.30
66568;DHT22;53422;49.296;6.900;2022-07-04T07:35:48;24.00;48.30
66568;DHT22;53422;49.296;6.900;2022-07-04T07:38:14;24.10;48.30
66568;DHT22;53422;49.296;6.900;2022-07-04T07:40:40;24.20;48.10
66568;DHT22;53422;49.296;6.900;2022-07-04T07:43:06;24.40;47.70
66568;DHT22;53422;49.296;6.900;2022-07-04T07:45:32;24.30;47.90
66568;DHT22;53422;49.296;6.900;2022-07-04T07:48:00;24.40;47.50
66568;DHT22;53422;49.296;6.900;2022-07-04T07:50:26;24.50;47.50
66568;DHT22;53422;49.296;6.900;2022-07-04T07:52:52;24.70;47.10
66568;DHT22;53422;49.296;6.900;2022-07-04T07:55:17;24.80;46.40
66568;DHT22;53422;49.296;6.900;2022-07-04T07:57:43;25.00;46.30
66568;DHT22;53422;49.296;6.900;2022-07-04T08:00:09;25.20;45.60
66568;DHT22;53422;49.296;6.900;2022-07-04T08:02:35;25.30;45.80
66568;DHT22;53422;49.296;6.900;2022-07-04T08:05:24;25.40;45.60
66568;DHT22;53422;49.296;6.900;2022-07-04T08:07:49;25.20;45.70
66568;DHT22;53422;49.296;6.900;2022-07-04T08:10:15;25.30;45.50
66568;DHT22;53422;49.296;6.900;2022-07-04T08:12:41;25.40;44.10
66568;DHT22;53422;49.296;6.900;2022-07-04T08:15:07;25.50;42.90
66568;DHT22;53422;49.296;6.900;2022-07-04T08:17:36;25.40;44.60
66568;DHT22;53422;49.296;6.900;2022-07-04T08:20:03;25.50;44.40
66568;DHT22;53422;49.296;6.900;2022-07-04T08:22:29;25.70;44.10
66568;DHT22;53422;49.296;6.900;2022-07-04T08:24:55;25.90;43.70
66568;DHT22;53422;49.296;6.900;2022-07-04T08:27:21;26.10;42.50
66568;DHT22;53422;49.296;6.900;2022-07-04T08:29:49;26.10;43.40
66568;DHT22;53422;49.296;6.900;2022-07-04T08:32:14;26.20;43.20
66568;DHT22;53422;49.296;6.900;2022-07-04T08:34:40;26.30;42.70
66568;DHT22;53422;49.296;6.900;2022-07-04T08:37:08;26.50;42.40
66568;DHT22;53422;49.296;6.900;2022-07-04T08:39:34;26.60;42.70
66568;DHT22;53422;49.296;6.900;2022-07-04T08:42:03;26.60;42.90
66568;DHT22;53422;49.296;6.900;2022-07-04T08:44:30;26.60;42.80
66568;DHT22;53422;49.296;6.900;2022-07-04T08:46:56;26.60;42.40
66568;DHT22;53422;49.296;6.900;2022-07-04T08:49:24;26.80;43.10
66568;DHT22;53422;49.296;6.900;2022-07-04T08:51:58;27.00;42.40
66568;DHT22;53422;49.296;6.900;2022-07-04T08:54:25;27.20;41.90
66568;DHT22;53422;49.296;6.900;2022-07-04T08:57:11;27.00;41.90
66568;DHT22;53422;49.296;6.900;2022-07-04T09:00:05;27.10;41.30
66568;DHT22;53422;49.296;6.900;2022-07-04T09:02:33;27.30;41.80
66568;DHT22;53422;49.296;6.900;2022-07-04T09:04:59;27.40;40.70
66568;DHT22;53422;49.296;6.900;2022-07-04T09:07:27;27.60;40.80
66568;DHT22;53422;49.296;6.900;2022-07-04T09:09:54;27.80;40.90
66568;DHT22;53422;49.296;6.900;2022-07-04T09:12:20;27.90;40.80
66568;DHT22;53422;49.296;6.900;2022-07-04T09:14:45;27.80;40.80
66568;DHT22;53422;49.296;6.900;2022-07-04T09:17:11;27.50;40.60
66568;DHT22;53422;49.296;6.900;2022-07-04T09:19:38;27.70;40.00
66568;DHT22;53422;49.296;6.900;2022-07-04T09:22:07;27.80;40.00
66568;DHT22;53422;49.296;6.900;2022-07-04T09:24:52;28.20;39.40
66568;DHT22;53422;49.296;6.900;2022-07-04T09:27:36;28.20;39.10
66568;DHT22;53422;49.296;6.900;2022-07-04T09:30:03;28.10;38.50
66568;DHT22;53422;49.296;6.900;2022-07-04T09:35:17;28.00;37.90
66568;DHT22;53422;49.296;6.900;2022-07-04T09:37:45;28.10;38.20
66568;DHT22;53422;49.296;6.900;2022-07-04T09:40:33;28.20;38.20
66568;DHT22;53422;49.296;6.900;2022-07-04T09:43:00;28.50;38.40
66568;DHT22;53422;49.296;6.900;2022-07-04T09:45:28;28.10;36.50
66568;DHT22;53422;49.296;6.900;2022-07-04T09:47:58;27.40;37.40
66568;DHT22;53422;49.296;6.900;2022-07-04T09:50:26;26.70;37.80
66568;DHT22;53422;49.296;6.900;2022-07-04T09:52:59;26.80;37.80
66568;DHT22;53422;49.296;6.900;2022-07-04T09:55:31;26.80;38.30
66568;DHT22;53422;49.296;6.900;2022-07-04T09:58:02;27.20;37.90
66568;DHT22;53422;49.296;6.900;2022-07-04T10:00:34;27.50;37.90
66568;DHT22;53422;49.296;6.900;2022-07-04T10:08:29;28.20;36.30
66568;DHT22;53422;49.296;6.900;2022-07-04T10:11:00;28.50;36.30
66568;DHT22;53422;49.296;6.900;2022-07-04T10:14:04;28.60;35.80
66568;DHT22;53422;49.296;6.900;2022-07-04T10:16:31;28.20;36.60
66568;DHT22;53422;49.296;6.900;2022-07-04T10:18:56;28.60;35.60
66568;DHT22;53422;49.296;6.900;2022-07-04T10:21:23;29.10;35.40
66568;DHT22;53422;49.296;6.900;2022-07-04T10:23:50;29.40;35.30
66568;DHT22;53422;49.296;6.900;2022-07-04T10:26:21;29.40;35.20
66568;DHT22;53422;49.296;6.900;2022-07-04T10:28:49;29.30;35.00
66568;DHT22;53422;49.296;6.900;2022-07-04T10:31:17;29.40;35.20
66568;DHT22;53422;49.296;6.900;2022-07-04T10:33:43;29.40;35.20
66568;DHT22;53422;49.296;6.900;2022-07-04T10:36:20;29.40;34.70
66568;DHT22;53422;49.296;6.900;2022-07-04T10:39:00;29.70;35.10
66568;DHT22;53422;49.296;6.900;2022-07-04T10:41:28;29.80;33.90
66568;DHT22;53422;49.296;6.900;2022-07-04T10:46:28;30.10;35.00
66568;DHT22;53422;49.296;6.900;2022-07-04T10:56:53;30.30;32.40
66568;DHT22;53422;49.296;6.900;2022-07-04T10:59:29;30.10;33.80
66568;DHT22;53422;49.296;6.900;2022-07-04T11:17:56;29.70;31.40
66568;DHT22;53422;49.296;6.900;2022-07-04T11:20:24;29.80;32.40
66568;DHT22;53422;49.296;6.900;2022-07-04T11:22:50;29.70;32.20
66568;DHT22;53422;49.296;6.900;2022-07-04T11:25:16;29.70;32.30
66568;DHT22;53422;49.296;6.900;2022-07-04T11:27:42;29.70;32.30
66568;DHT22;53422;49.296;6.900;2022-07-04T11:30:09;29.80;32.10
66568;DHT22;53422;49.296;6.900;2022-07-04T11:32:35;29.90;32.20
66568;DHT22;53422;49.296;6.900;2022-07-04T11:35:03;30.20;32.50
66568;DHT22;53422;49.296;6.900;2022-07-04T11:37:30;30.60;32.30
66568;DHT22;53422;49.296;6.900;2022-07-04T11:39:59;30.80;32.50
66568;DHT22;53422;49.296;6.900;2022-07-04T11:43:05;30.90;33.30
66568;DHT22;53422;49.296;6.900;2022-07-04T11:45:50;30.90;32.00
66568;DHT22;53422;49.296;6.900;2022-07-04T11:48:27;30.70;32.60
66568;DHT22;53422;49.296;6.900;2022-07-04T11:50:53;30.80;33.00
66568;DHT22;53422;49.296;6.900;2022-07-04T11:53:19;30.90;32.40
66568;DHT22;53422;49.296;6.900;2022-07-04T11:55:58;31.00;32.90
66568;DHT22;53422;49.296;6.900;2022-07-04T11:58:39;31.10;33.10
66568;DHT22;53422;49.296;6.900;2022-07-04T12:01:05;31.10;31.60
66568;DHT22;53422;49.296;6.900;2022-07-04T12:03:33;31.20;31.40
66568;DHT22;53422;49.296;6.900;2022-07-04T12:06:03;31.10;31.40
66568;DHT22;53422;49.296;6.900;2022-07-04T12:08:29;31.00;31.30
66568;DHT22;53422;49.296;6.900;2022-07-04T12:10:54;30.90;32.10
66568;DHT22;53422;49.296;6.900;2022-07-04T12:13:20;30.80;32.10
66568;DHT22;53422;49.296;6.900;2022-07-04T12:15:48;30.90;31.30
66568;DHT22;53422;49.296;6.900;2022-07-04T12:18:22;31.10;32.20
66568;DHT22;53422;49.296;6.900;2022-07-04T12:20:50;31.20;32.00
66568;DHT22;53422;49.296;6.900;2022-07-04T12:23:19;31.50;32.50
66568;DHT22;53422;49.296;6.900;2022-07-04T12:25:48;31.50;32.10
66568;DHT22;53422;49.296;6.900;2022-07-04T12:28:16;31.60;32.60
66568;DHT22;53422;49.296;6.900;2022-07-04T12:30:53;31.70;33.00
66568;DHT22;53422;49.296;6.900;2022-07-04T12:33:22;31.60;32.20
66568;DHT22;53422;49.296;6.900;2022-07-04T12:35:55;31.60;32.50
66568;DHT22;53422;49.296;6.900;2022-07-04T12:43:43;31.60;32.20
66568;DHT22;53422;49.296;6.900;2022-07-04T12:46:13;31.50;32.40
66568;DHT22;53422;49.296;6.900;2022-07-04T12:48:39;31.30;32.00
66568;DHT22;53422;49.296;6.900;2022-07-04T12:53:42;31.60;32.20
66568;DHT22;53422;49.296;6.900;2022-07-04T12:56:09;31.80;31.90
66568;DHT22;53422;49.296;6.900;2022-07-04T12:58:35;31.90;30.90
66568;DHT22;53422;49.296;6.900;2022-07-04T13:01:02;31.70;31.10
66568;DHT22;53422;49.296;6.900;2022-07-04T13:03:31;31.60;30.80
66568;DHT22;53422;49.296;6.900;2022-07-04T13:06:01;31.70;31.10
66568;DHT22;53422;49.296;6.900;2022-07-04T13:08:26;31.60;30.40
66568;DHT22;53422;49.296;6.900;2022-07-04T13:10:52;31.60;31.90
66568;DHT22;53422;49.296;6.900;2022-07-04T13:13:38;31.00;29.70
66568;DHT22;53422;49.296;6.900;2022-07-04T13:16:04;30.80;30.30
66568;DHT22;53422;49.296;6.900;2022-07-04T13:18:29;30.90;30.00
66568;DHT22;53422;49.296;6.900;2022-07-04T13:20:56;31.00;30.50
66568;DHT22;53422;49.296;6.900;2022-07-04T13:23:22;30.80;28.60
66568;DHT22;53422;49.296;6.900;2022-07-04T13:25:47;30.60;30.20
66568;DHT22;53422;49.296;6.900;2022-07-04T13:28:13;30.90;30.00
66568;DHT22;53422;49.296;6.900;2022-07-04T13:30:38;30.50;29.60
66568;DHT22;53422;49.296;6.900;2022-07-04T13:33:04;30.50;29.90
66568;DHT22;53422;49.296;6.900;2022-07-04T13:35:30;30.70;30.90
66568;DHT22;53422;49.296;6.900;2022-07-04T13:37:56;30.80;30.20
66568;DHT22;53422;49.296;6.900;2022-07-04T13:40:21;31.00;30.00
66568;DHT22;53422;49.296;6.900;2022-07-04T13:42:47;31.20;29.60
66568;DHT22;53422;49.296;6.900;2022-07-04T13:45:28;30.20;29.30
66568;DHT22;53422;49.296;6.900;2022-07-04T13:47:55;30.20;30.30
66568;DHT22;53422;49.296;6.900;2022-07-04T13:50:21;30.60;30.20
66568;DHT22;53422;49.296;6.900;2022-07-04T13:52:48;30.30;30.10
66568;DHT22;53422;49.296;6.900;2022-07-04T13:55:13;30.50;30.10
66568;DHT22;53422;49.296;6.900;2022-07-04T13:57:39;30.60;29.40
66568;DHT22;53422;49.296;6.900;2022-07-04T14:00:06;30.20;30.00
66568;DHT22;53422;49.296;6.900;2022-07-04T14:02:32;30.00;30.00
66568;DHT22;53422;49.296;6.900;2022-07-04T14:04:58;30.40;29.70
66568;DHT22;53422;49.296;6.900;2022-07-04T14:07:24;30.80;30.10
66568;DHT22;53422;49.296;6.900;2022-07-04T14:09:50;30.60;30.70
66568;DHT22;53422;49.296;6.900;2022-07-04T14:12:16;31.00;29.90
66568;DHT22;53422;49.296;6.900;2022-07-04T14:14:42;31.10;29.60
66568;DHT22;53422;49.296;6.900;2022-07-04T14:17:08;31.00;29.60
66568;DHT22;53422;49.296;6.900;2022-07-04T14:19:34;30.90;29.60
66568;DHT22;53422;49.296;6.900;2022-07-04T14:21:59;30.80;29.30
66568;DHT22;53422;49.296;6.900;2022-07-04T14:24:25;30.80;29.80
66568;DHT22;53422;49.296;6.900;2022-07-04T14:26:52;31.00;29.80
66568;DHT22;53422;49.296;6.900;2022-07-04T14:29:18;30.90;29.50
66568;DHT22;53422;49.296;6.900;2022-07-04T14:31:44;30.90;29.40
66568;DHT22;53422;49.296;6.900;2022-07-04T14:34:10;30.90;29.90
66568;DHT22;53422;49.296;6.900;2022-07-04T14:36:38;30.70;30.00
66568;DHT22;53422;49.296;6.900;2022-07-04T14:39:04;30.80;30.00
66568;DHT22;53422;49.296;6.900;2022-07-04T14:41:30;30.80;29.90
66568;DHT22;53422;49.296;6.900;2022-07-04T14:43:56;30.80;29.40
66568;DHT22;53422;49.296;6.900;2022-07-04T14:46:22;30.70;29.80
66568;DHT22;53422;49.296;6.900;2022-07-04T14:48:48;30.60;30.00
66568;DHT22;53422;49.296;6.900;2022-07-04T14:51:13;30.70;30.00
66568;DHT22;53422;49.296;6.900;2022-07-04T14:53:39;30.70;29.80
66568;DHT22;53422;49.296;6.900;2022-07-04T14:56:05;30.70;29.80
66568;DHT22;53422;49.296;6.900;2022-07-04T14:58:31;30.60;29.60
66568;DHT22;53422;49.296;6.900;2022-07-04T15:00:56;30.60;29.80
66568;DHT22;53422;49.296;6.900;2022-07-04T15:03:22;30.60;29.80
66568;DHT22;53422;49.296;6.900;2022-07-04T15:05:48;30.60;29.70
66568;DHT22;53422;49.296;6.900;2022-07-04T15:08:14;30.60;29.60
66568;DHT22;53422;49.296;6.900;2022-07-04T15:10:40;30.60;29.70
66568;DHT22;53422;49.296;6.900;2022-07-04T15:13:06;30.70;30.00
66568;DHT22;53422;49.296;6.900;2022-07-04T15:15:32;30.60;30.00
66568;DHT22;53422;49.296;6.900;2022-07-04T15:17:58;30.60;30.30
66568;DHT22;53422;49.296;6.900;2022-07-04T15:20:24;30.70;30.00
66568;DHT22;53422;49.296;6.900;2022-07-04T15:23:08;30.80;30.50
66568;DHT22;53422;49.296;6.900;2022-07-04T15:25:52;30.80;31.20
66568;DHT22;53422;49.296;6.900;2022-07-04T15:28:18;30.70;30.10
66568;DHT22;53422;49.296;6.900;2022-07-04T15:30:50;30.60;31.10
66568;DHT22;53422;49.296;6.900;2022-07-04T15:33:16;30.50;30.40
66568;DHT22;53422;49.296;6.900;2022-07-04T15:35:45;30.40;30.90
66568;DHT22;53422;49.296;6.900;2022-07-04T15:38:12;30.40;30.70
66568;DHT22;53422;49.296;6.900;2022-07-04T15:40:38;30.40;30.80
66568;DHT22;53422;49.296;6.900;2022-07-04T15:43:05;30.50;30.90
66568;DHT22;53422;49.296;6.900;2022-07-04T15:45:31;30.20;30.10
66568;DHT22;53422;49.296;6.900;2022-07-04T15:47:57;30.10;30.00
66568;DHT22;53422;49.296;6.900;2022-07-04T15:50:22;29.90;30.00
66568;DHT22;53422;49.296;6.900;2022-07-04T15:52:49;29.90;30.60
66568;DHT22;53422;49.296;6.900;2022-07-04T15:55:15;30.00;30.60
66568;DHT22;53422;49.296;6.900;2022-07-04T15:57:40;30.00;30.60
66568;DHT22;53422;49.296;6.900;2022-07-04T16:00:07;29.90;30.50
66568;DHT22;53422;49.296;6.900;2022-07-04T16:02:33;29.90;30.50
66568;DHT22;53422;49.296;6.900;2022-07-04T16:04:59;29.70;30.40
66568;DHT22;53422;49.296;6.900;2022-07-04T16:07:25;29.60;30.30
66568;DHT22;53422;49.296;6.900;2022-07-04T16:09:51;29.60;29.60
66568;DHT22;53422;49.296;6.900;2022-07-04T16:12:16;29.40;29.50
66568;DHT22;53422;49.296;6.900;2022-07-04T16:14:42;29.50;29.80